Time;durP1;ratioP1;P1;durP2;ratioP2;P2;SDS_P1;SDS_P2;PMS_P1;PMS_P2;Temp;Humidity;BMP_temperature;BMP_pressure;BME280_temperature;BME280_humidity;BME280_pressure;Samples;Min_cycle;Max_cycle;Signal;HPM_P1;HPM_P2
2022/12/25 00:02:04;;;;;;;4.40;4.00;;;13.70;70.60;;;;;;4992674;28;20191;-57
2022/12/25 00:04:29;;;;;;;5.83;4.37;;;13.50;71.30;;;;;;4993142;28;20598;-57
2022/12/25 00:06:55;;;;;;;6.87;4.63;;;13.50;71.70;;;;;;4991675;28;20218;-57
2022/12/25 00:09:21;;;;;;;8.00;4.00;;;13.50;71.70;;;;;;4993100;28;20195;-57
2022/12/25 00:11:46;;;;;;;8.47;4.20;;;13.30;72.20;;;;;;4992438;28;20198;-57
2022/12/25 00:14:12;;;;;;;7.53;4.90;;;13.30;72.30;;;;;;4992954;28;20281;-57
2022/12/25 00:16:37;;;;;;;9.50;4.73;;;13.30;72.90;;;;;;4992795;28;20642;-57
2022/12/25 00:19:03;;;;;;;6.00;5.13;;;13.30;72.90;;;;;;5002188;28;20272;-57
2022/12/25 00:21:30;;;;;;;6.50;5.73;;;13.30;73.20;;;;;;4995923;28;20197;-57
2022/12/25 00:23:57;;;;;;;8.40;5.47;;;13.40;72.80;;;;;;4987967;28;20227;-57
2022/12/25 00:26:24;;;;;;;7.93;5.57;;;13.40;72.50;;;;;;4990727;28;20492;-57
2022/12/25 00:28:57;;;;;;;6.60;5.70;;;13.30;72.70;;;;;;4992435;28;20522;-57
2022/12/25 00:31:24;;;;;;;6.40;4.60;;;13.40;72.50;;;;;;4992175;28;20438;-57
2022/12/25 00:33:50;;;;;;;5.60;4.60;;;13.60;71.90;;;;;;4991154;28;20434;-57
2022/12/25 00:36:19;;;;;;;9.87;4.67;;;13.70;71.40;;;;;;4992543;28;20780;-57
2022/12/25 00:38:45;;;;;;;9.13;4.43;;;13.80;70.50;;;;;;4992680;28;20853;-57
2022/12/25 00:41:14;;;;;;;7.53;4.03;;;13.80;70.20;;;;;;4992087;28;20429;-57
2022/12/25 00:43:43;;;;;;;5.80;3.80;;;13.80;70.80;;;;;;4992699;28;20559;-57
2022/12/25 00:46:11;;;;;;;5.63;3.90;;;13.80;70.30;;;;;;4992483;28;20425;-57
2022/12/25 00:48:37;;;;;;;7.63;4.00;;;13.80;70.50;;;;;;4992382;28;20928;-57
2022/12/25 00:51:06;;;;;;;5.13;3.83;;;13.90;70.40;;;;;;4991912;28;20430;-57
2022/12/25 00:53:31;;;;;;;7.80;4.70;;;13.90;69.90;;;;;;4992251;28;20434;-57
2022/12/25 00:55:59;;;;;;;4.40;4.00;;;14.00;69.60;;;;;;4992256;28;20565;-57
2022/12/25 00:58:27;;;;;;;7.40;4.30;;;13.90;70.10;;;;;;4992101;28;20654;-57
2022/12/25 01:00:53;;;;;;;4.57;3.13;;;13.90;69.80;;;;;;4990618;28;20414;-57
2022/12/25 01:03:19;;;;;;;5.70;4.53;;;13.90;69.80;;;;;;4992164;28;20469;-57
2022/12/25 01:05:57;;;;;;;5.33;4.83;;;13.90;70.30;;;;;;4992218;28;20206;-57
2022/12/25 01:08:23;;;;;;;6.70;4.90;;;13.90;69.90;;;;;;4992215;28;20191;-57
2022/12/25 01:10:58;;;;;;;5.40;4.80;;;13.90;70.10;;;;;;4991808;28;20512;-57
2022/12/25 01:13:23;;;;;;;10.37;6.37;;;13.80;70.20;;;;;;4992358;28;20937;-57
2022/12/25 01:15:51;;;;;;;11.20;6.30;;;13.60;71.40;;;;;;4992160;28;20429;-57
2022/12/25 01:18:20;;;;;;;6.40;5.10;;;13.60;71.40;;;;;;4994919;28;20210;-57
2022/12/25 01:20:46;;;;;;;8.30;6.23;;;13.70;71.90;;;;;;5001367;28;20430;-57
2022/12/25 01:23:11;;;;;;;6.20;5.07;;;13.70;71.80;;;;;;4992055;28;20469;-57
2022/12/25 01:25:37;;;;;;;4.93;4.43;;;13.70;71.20;;;;;;4984029;28;20203;-57
2022/12/25 01:28:02;;;;;;;7.87;5.20;;;13.70;71.50;;;;;;4991821;28;20198;-57
2022/12/25 01:30:28;;;;;;;10.33;5.20;;;13.80;71.20;;;;;;4991521;28;20202;-57
2022/12/25 01:32:54;;;;;;;5.80;4.73;;;13.90;70.60;;;;;;4991751;28;20641;-57
2022/12/25 01:35:19;;;;;;;5.60;4.80;;;14.00;69.90;;;;;;4991808;28;20194;-57
2022/12/25 01:37:45;;;;;;;7.80;4.90;;;14.20;69.70;;;;;;4991834;28;20288;-57
2022/12/25 01:40:11;;;;;;;6.10;4.63;;;14.00;69.60;;;;;;4991847;28;20248;-57
2022/12/25 01:42:36;;;;;;;7.13;5.50;;;14.10;70.20;;;;;;4991852;28;20569;-57
2022/12/25 01:45:33;;;;;;;6.53;4.80;;;13.90;70.30;;;;;;4991825;28;20253;-57
2022/12/25 01:48:03;;;;;;;6.33;5.53;;;13.90;70.70;;;;;;4991716;28;20217;-57
2022/12/25 01:50:29;;;;;;;7.50;4.90;;;13.90;71.00;;;;;;4991436;28;20868;-57
2022/12/25 01:52:56;;;;;;;5.60;4.77;;;13.80;71.00;;;;;;4990401;28;20894;-57
2022/12/25 01:55:22;;;;;;;6.87;4.90;;;13.90;71.10;;;;;;4995538;28;20421;-57
2022/12/25 01:57:48;;;;;;;7.40;5.40;;;14.00;70.90;;;;;;4995644;28;20437;-57
2022/12/25 02:00:15;;;;;;;9.20;5.00;;;14.00;70.60;;;;;;4995375;28;20202;-57
2022/12/25 02:02:42;;;;;;;5.40;4.90;;;13.90;71.70;;;;;;4995464;28;20472;-57
2022/12/25 02:05:13;;;;;;;7.90;5.20;;;13.80;71.10;;;;;;4995378;28;20513;-57
2022/12/25 02:07:40;;;;;;;4.70;4.20;;;14.00;71.00;;;;;;4995480;28;20476;-57
2022/12/25 02:10:09;;;;;;;6.77;4.27;;;14.10;70.40;;;;;;4995173;28;20436;-57
2022/12/25 02:12:35;;;;;;;5.97;4.70;;;14.10;70.30;;;;;;4995195;28;20441;-57
2022/12/25 02:15:08;;;;;;;5.70;4.63;;;14.20;70.10;;;;;;4995058;28;20429;-57
2022/12/25 02:18:08;;;;;;;5.50;4.67;;;14.20;69.90;;;;;;4995193;28;20470;-57
2022/12/25 02:20:43;;;;;;;8.70;4.30;;;14.20;69.70;;;;;;4974503;28;20453;-57
2022/12/25 02:23:37;;;;;;;12.63;4.63;;;14.10;70.00;;;;;;4993638;28;20484;-57
2022/12/25 02:26:30;;;;;;;5.00;4.50;;;14.20;70.00;;;;;;4990563;28;20532;-57
2022/12/25 02:29:04;;;;;;;4.60;3.97;;;14.20;69.80;;;;;;4995010;28;20426;-57
2022/12/25 02:31:47;;;;;;;4.87;4.40;;;14.10;70.10;;;;;;4994622;28;20869;-57
2022/12/25 02:34:38;;;;;;;7.47;4.50;;;13.90;70.90;;;;;;4994832;28;20434;-57
2022/12/25 02:37:11;;;;;;;4.50;3.57;;;13.90;71.40;;;;;;4994760;28;20433;-57
2022/12/25 02:40:13;;;;;;;4.90;3.30;;;14.00;71.00;;;;;;4994682;28;20430;-57
2022/12/25 03:07:12;;;;;;;8.87;4.00;;;13.60;73.20;;;;;;4994362;28;20517;-57
2022/12/25 03:12:57;;;;;;;3.87;3.50;;;13.70;73.00;;;;;;4992767;28;20481;-57
2022/12/25 03:18:14;;;;;;;4.10;3.07;;;13.90;72.90;;;;;;4993852;28;20468;-57
2022/12/25 03:31:10;;;;;;;3.93;2.47;;;13.70;74.50;;;;;;4971494;28;20473;-57
2022/12/25 03:32:07;;;;;;;3.80;2.23;;;13.70;74.90;;;;;;4993320;28;20929;-57
2022/12/25 04:37:03;;;;;;;3.17;2.90;;;12.70;80.60;;;;;;4992517;28;20437;-57
2022/12/25 04:39:29;;;;;;;2.83;2.63;;;12.70;80.10;;;;;;4992376;28;20881;-57
2022/12/25 04:41:54;;;;;;;3.40;3.10;;;12.80;80.30;;;;;;4992220;28;20202;-57
2022/12/25 04:44:20;;;;;;;3.90;3.10;;;12.70;80.10;;;;;;4992346;28;20295;-57
2022/12/25 04:46:45;;;;;;;3.07;2.63;;;12.90;79.50;;;;;;4992406;28;20194;-57
2022/12/25 04:49:11;;;;;;;3.23;3.03;;;12.80;79.00;;;;;;4992503;28;20193;-57
2022/12/25 04:51:37;;;;;;;2.83;2.63;;;12.80;79.10;;;;;;4992001;28;20202;-57
2022/12/25 04:54:02;;;;;;;2.60;2.40;;;12.80;78.60;;;;;;4992226;28;20573;-57
2022/12/25 04:56:28;;;;;;;3.50;3.20;;;12.90;78.50;;;;;;4992113;28;20191;-57
2022/12/25 04:58:55;;;;;;;3.13;2.93;;;12.80;78.20;;;;;;4990854;28;20665;-57
2022/12/25 05:01:20;;;;;;;3.73;3.00;;;12.80;78.50;;;;;;4992030;28;20197;-57
2022/12/25 05:03:46;;;;;;;4.37;3.50;;;12.90;78.30;;;;;;4992001;28;20977;-57
2022/12/25 05:06:11;;;;;;;3.87;3.27;;;13.00;78.00;;;;;;4992214;28;20278;-57
2022/12/25 05:08:37;;;;;;;4.00;2.80;;;13.00;77.90;;;;;;4992111;28;20634;-57
2022/12/25 05:11:08;;;;;;;4.47;2.63;;;12.90;78.60;;;;;;4991811;28;20252;-57
2022/12/25 05:13:34;;;;;;;3.10;2.20;;;12.90;78.40;;;;;;4991957;28;20729;-57
2022/12/25 05:16:02;;;;;;;3.47;2.20;;;12.80;79.50;;;;;;4991859;28;20521;-57
2022/12/25 05:18:28;;;;;;;2.53;2.00;;;12.70;79.90;;;;;;4991923;28;20476;-57
2022/12/25 05:20:54;;;;;;;2.77;2.40;;;12.70;80.80;;;;;;4991801;28;20910;-57
2022/12/25 05:23:20;;;;;;;2.60;2.40;;;12.60;80.50;;;;;;4991723;28;20258;-57
2022/12/25 05:25:46;;;;;;;2.80;2.13;;;12.70;80.50;;;;;;4990719;28;20484;-57
2022/12/25 05:28:12;;;;;;;2.60;2.40;;;12.70;80.30;;;;;;4994058;28;20946;-57
2022/12/25 05:30:38;;;;;;;3.57;2.50;;;12.80;79.80;;;;;;4995724;28;20657;-57
2022/12/25 05:33:03;;;;;;;2.23;2.03;;;12.80;79.60;;;;;;4995831;28;20270;-57
2022/12/25 05:35:29;;;;;;;5.93;2.50;;;12.80;79.40;;;;;;4996101;28;20200;-57
2022/12/25 05:37:55;;;;;;;3.73;2.83;;;12.70;80.10;;;;;;4996013;28;20541;-57
2022/12/25 05:40:21;;;;;;;2.60;2.40;;;12.70;80.10;;;;;;4995455;28;20646;-57
2022/12/25 05:42:46;;;;;;;3.10;2.50;;;12.80;79.30;;;;;;4995767;28;20194;-57
2022/12/25 05:45:12;;;;;;;4.07;3.10;;;12.90;78.70;;;;;;4995686;28;20280;-57
2022/12/25 05:47:37;;;;;;;3.47;3.17;;;13.10;78.20;;;;;;4995703;28;20281;-57
2022/12/25 05:50:04;;;;;;;3.37;3.07;;;13.10;77.00;;;;;;4994196;28;20213;-57
2022/12/25 05:52:31;;;;;;;4.90;3.30;;;13.30;76.60;;;;;;4995237;28;20195;-57
2022/12/25 05:54:57;;;;;;;7.33;3.07;;;13.40;75.80;;;;;;4995816;28;20434;-57
2022/12/25 05:57:23;;;;;;;3.77;2.87;;;13.30;76.00;;;;;;4995509;28;20468;-57
2022/12/25 05:59:48;;;;;;;3.17;2.70;;;13.50;75.80;;;;;;4995057;28;20438;-57
2022/12/25 06:02:14;;;;;;;2.57;2.37;;;13.60;74.90;;;;;;4995345;28;20222;-57
2022/12/25 06:04:40;;;;;;;3.30;3.00;;;13.30;75.30;;;;;;4995396;28;20721;-57
2022/12/25 06:07:05;;;;;;;4.40;2.60;;;13.40;75.90;;;;;;4995360;28;20249;-57
2022/12/25 06:09:31;;;;;;;2.77;2.57;;;13.40;75.30;;;;;;4995408;28;20201;-57
2022/12/25 06:11:56;;;;;;;3.23;2.93;;;13.40;75.20;;;;;;4994896;28;20199;-58
2022/12/25 06:14:22;;;;;;;3.03;2.40;;;13.30;75.10;;;;;;4995209;28;20282;-57
2022/12/25 06:16:52;;;;;;;4.40;2.60;;;13.20;75.90;;;;;;4993228;28;20235;-57
2022/12/25 06:19:18;;;;;;;2.97;2.60;;;13.10;76.70;;;;;;4995043;28;20198;-57
2022/12/25 06:21:44;;;;;;;2.93;2.20;;;13.00;76.80;;;;;;4994890;28;20476;-57
2022/12/25 06:24:09;;;;;;;2.50;2.30;;;13.00;77.10;;;;;;4995174;28;20477;-57
2022/12/25 06:26:35;;;;;;;4.53;2.97;;;13.10;76.50;;;;;;4995085;28;20248;-57
2022/12/25 06:29:01;;;;;;;3.77;3.03;;;13.00;77.00;;;;;;4995357;28;20269;-57
2022/12/25 06:31:26;;;;;;;3.00;2.40;;;13.10;77.00;;;;;;4994486;28;20198;-57
2022/12/25 06:33:52;;;;;;;4.17;2.70;;;13.00;77.10;;;;;;4995015;28;20218;-57
2022/12/25 06:36:23;;;;;;;5.50;3.10;;;13.10;76.40;;;;;;4994743;28;20253;-57
2022/12/25 06:38:50;;;;;;;3.00;2.70;;;13.10;76.70;;;;;;4994183;28;20193;-57
2022/12/25 06:41:24;;;;;;;3.43;2.80;;;13.00;76.80;;;;;;4994115;28;20430;-57
2022/12/25 06:43:58;;;;;;;3.70;2.70;;;13.10;76.80;;;;;;4992912;28;20481;-57
2022/12/25 06:46:26;;;;;;;3.27;2.83;;;13.10;76.90;;;;;;4994497;28;20805;-57
2022/12/25 06:48:52;;;;;;;3.03;2.80;;;13.10;76.70;;;;;;4994516;28;20441;-57
2022/12/25 06:51:24;;;;;;;2.73;2.53;;;13.30;76.10;;;;;;4993980;28;20434;-57
2022/12/25 06:53:50;;;;;;;2.90;2.70;;;13.30;75.70;;;;;;4994266;28;20484;-57
2022/12/25 06:56:19;;;;;;;3.33;2.90;;;13.30;75.60;;;;;;4994237;28;20520;-57
2022/12/25 06:58:50;;;;;;;3.17;2.83;;;13.30;75.30;;;;;;4994247;28;20425;-57
2022/12/25 07:01:28;;;;;;;3.67;3.10;;;13.30;75.70;;;;;;4994080;28;20923;-57
2022/12/25 07:03:56;;;;;;;2.83;2.63;;;13.40;75.20;;;;;;4994138;28;20848;-57
2022/12/25 07:06:22;;;;;;;3.00;2.80;;;13.60;74.20;;;;;;4994097;28;20454;-57
2022/12/25 07:08:48;;;;;;;2.93;2.60;;;13.60;74.00;;;;;;4993989;28;20465;-57
2022/12/25 07:11:13;;;;;;;3.13;2.83;;;13.50;73.80;;;;;;4992321;28;20430;-57
2022/12/25 07:13:39;;;;;;;2.43;2.23;;;13.40;74.20;;;;;;4994274;28;20195;-57
2022/12/25 07:16:06;;;;;;;4.27;2.90;;;13.40;74.60;;;;;;4993837;28;20217;-57
2022/12/25 07:18:33;;;;;;;3.80;3.10;;;13.60;73.90;;;;;;4993936;28;20493;-57
2022/12/25 07:21:05;;;;;;;5.43;3.73;;;13.70;73.50;;;;;;4993857;28;20532;-57
2022/12/25 07:23:31;;;;;;;2.83;2.63;;;13.80;73.10;;;;;;4993975;28;20883;-57
2022/12/25 07:25:58;;;;;;;4.93;2.53;;;13.90;72.40;;;;;;4993854;28;20473;-57
2022/12/25 07:28:24;;;;;;;3.63;2.70;;;13.80;72.70;;;;;;4993982;28;20261;-57
2022/12/25 07:30:49;;;;;;;2.93;2.73;;;13.60;72.90;;;;;;4993473;28;20425;-57
2022/12/25 07:33:15;;;;;;;3.53;3.23;;;13.50;73.80;;;;;;4994132;28;20595;-57
2022/12/25 07:35:41;;;;;;;3.97;3.07;;;13.30;74.40;;;;;;4993884;28;20281;-57
2022/12/25 07:38:07;;;;;;;6.33;3.33;;;13.30;75.10;;;;;;4991910;28;20863;-57
2022/12/25 07:40:33;;;;;;;5.07;3.70;;;13.40;74.60;;;;;;4993047;28;20198;-57
2022/12/25 07:42:59;;;;;;;5.30;4.13;;;13.60;74.00;;;;;;4993318;28;20508;-57
2022/12/25 07:45:24;;;;;;;5.87;3.83;;;13.70;73.50;;;;;;4993569;28;20801;-57
2022/12/25 07:47:50;;;;;;;4.80;3.17;;;13.60;73.70;;;;;;4993340;28;20230;-57
2022/12/25 07:50:16;;;;;;;4.13;3.50;;;13.60;73.50;;;;;;4992748;28;20253;-57
2022/12/25 07:52:42;;;;;;;3.00;2.70;;;13.40;74.70;;;;;;4992690;28;20191;-57
2022/12/25 07:55:08;;;;;;;3.30;3.00;;;13.20;75.70;;;;;;4993304;28;20437;-57
2022/12/25 07:57:35;;;;;;;3.33;2.90;;;13.00;76.90;;;;;;4993032;28;20484;-57
2022/12/25 08:00:02;;;;;;;3.13;2.80;;;12.90;77.70;;;;;;4992891;28;20762;-57
2022/12/25 08:02:28;;;;;;;3.37;2.47;;;13.00;77.50;;;;;;4992232;28;20437;-57
2022/12/25 08:04:54;;;;;;;5.10;3.13;;;13.00;77.30;;;;;;4992055;28;20888;-57
2022/12/25 08:07:20;;;;;;;2.70;2.50;;;12.70;78.70;;;;;;4992867;28;20202;-57
2022/12/25 08:09:45;;;;;;;2.60;2.40;;;12.50;80.40;;;;;;4992552;28;20426;-57
2022/12/25 08:12:11;;;;;;;3.60;2.60;;;12.30;81.20;;;;;;4992941;28;20296;-57
2022/12/25 08:14:36;;;;;;;3.33;2.80;;;12.20;82.50;;;;;;4992922;28;20201;-57
2022/12/25 08:17:02;;;;;;;3.27;2.97;;;12.20;82.80;;;;;;4992943;28;20765;-57
2022/12/25 08:19:28;;;;;;;3.23;2.70;;;12.50;81.90;;;;;;4992821;28;20198;-58
2022/12/25 08:21:53;;;;;;;3.10;2.70;;;12.80;79.80;;;;;;4992348;28;20199;-57
2022/12/25 08:24:19;;;;;;;4.20;2.67;;;12.90;78.50;;;;;;4992500;28;20285;-57
2022/12/25 08:26:45;;;;;;;4.07;3.53;;;12.90;78.10;;;;;;4992532;28;20222;-57
2022/12/25 08:29:10;;;;;;;2.83;2.57;;;13.00;78.20;;;;;;4991066;28;20273;-57
2022/12/25 08:31:36;;;;;;;2.70;2.50;;;13.10;77.80;;;;;;4992171;28;20226;-57
2022/12/25 08:34:02;;;;;;;2.63;2.43;;;13.30;77.40;;;;;;4992599;28;20249;-57
2022/12/25 08:36:28;;;;;;;2.47;2.27;;;13.40;76.50;;;;;;4992545;28;20665;-57
2022/12/25 08:38:54;;;;;;;3.00;2.57;;;13.40;76.20;;;;;;4992676;28;20429;-57
2022/12/25 08:41:20;;;;;;;3.87;3.57;;;13.40;76.50;;;;;;4991878;28;20285;-57
2022/12/25 08:43:46;;;;;;;3.27;2.97;;;13.60;76.40;;;;;;4992386;28;20639;-57
2022/12/25 08:46:12;;;;;;;4.10;3.80;;;13.70;76.30;;;;;;4992604;28;20221;-57
2022/12/25 08:48:41;;;;;;;5.07;3.50;;;13.90;75.40;;;;;;4992448;28;20199;-57
2022/12/25 08:51:13;;;;;;;2.63;2.43;;;14.00;75.10;;;;;;4991936;28;20430;-57
2022/12/25 08:53:39;;;;;;;3.40;3.17;;;14.00;74.80;;;;;;4992231;28;20441;-57
2022/12/25 08:56:05;;;;;;;4.43;4.03;;;14.10;75.00;;;;;;4990577;28;20492;-57
2022/12/25 08:58:31;;;;;;;3.93;3.63;;;14.30;74.50;;;;;;4992189;28;20916;-57
2022/12/25 09:00:57;;;;;;;3.80;3.50;;;14.50;73.80;;;;;;4991798;28;20765;-57
2022/12/25 09:03:23;;;;;;;3.87;3.47;;;14.60;72.80;;;;;;4991711;28;20515;-57
2022/12/25 09:05:50;;;;;;;5.53;3.50;;;14.50;72.70;;;;;;4992377;28;20201;-57
2022/12/25 09:08:15;;;;;;;4.30;3.70;;;14.50;72.90;;;;;;4991961;28;20461;-57
2022/12/25 09:10:41;;;;;;;4.50;3.87;;;14.30;73.10;;;;;;4991832;28;20465;-57
2022/12/25 09:13:07;;;;;;;4.20;3.70;;;14.30;72.60;;;;;;4991996;28;20202;-57
2022/12/25 09:15:33;;;;;;;3.90;3.20;;;13.90;73.70;;;;;;4992158;28;20194;-57
2022/12/25 09:17:58;;;;;;;6.43;3.67;;;13.90;74.60;;;;;;4992189;28;20470;-57
2022/12/25 09:20:24;;;;;;;3.57;3.27;;;13.80;74.90;;;;;;4991472;28;20215;-57
2022/12/25 09:22:50;;;;;;;6.97;4.07;;;13.80;75.40;;;;;;4990344;28;20644;-57
2022/12/25 09:25:15;;;;;;;4.83;4.37;;;13.90;76.10;;;;;;4991563;28;20230;-57
2022/12/25 09:27:42;;;;;;;5.07;4.27;;;13.70;75.80;;;;;;4991901;28;20198;-58
2022/12/25 09:30:09;;;;;;;5.00;4.50;;;13.80;77.00;;;;;;4991590;28;20198;-57
2022/12/25 09:32:34;;;;;;;5.23;4.73;;;13.90;76.90;;;;;;4991628;28;20494;-57
2022/12/25 09:35:00;;;;;;;4.63;4.20;;;14.20;76.20;;;;;;4991711;28;20921;-57
2022/12/25 09:37:27;;;;;;;4.60;4.13;;;14.30;76.10;;;;;;4991468;28;20213;-57
2022/12/25 09:39:53;;;;;;;5.70;4.70;;;14.40;75.30;;;;;;4991353;28;20594;-58
2022/12/25 09:42:21;;;;;;;5.00;4.50;;;14.60;75.70;;;;;;4991822;28;20549;-57
2022/12/25 09:44:53;;;;;;;6.57;5.23;;;14.60;75.40;;;;;;4991610;28;20238;-57
2022/12/25 09:47:34;;;;;;;5.37;4.30;;;15.00;75.10;;;;;;4991456;28;20870;-57
2022/12/25 09:50:10;;;;;;;4.33;3.93;;;15.40;73.60;;;;;;4989633;28;20523;-58
2022/12/25 09:52:47;;;;;;;3.10;2.90;;;15.70;72.30;;;;;;4991648;28;20968;-57
2022/12/25 09:55:17;;;;;;;3.07;2.50;;;16.00;69.30;;;;;;4991520;28;20497;-58
2022/12/25 09:57:44;;;;;;;4.60;4.20;;;16.30;69.00;;;;;;4991581;28;20434;-58
2022/12/25 10:00:19;;;;;;;4.00;3.20;;;16.70;68.50;;;;;;4991354;28;20917;-58
2022/12/25 10:02:50;;;;;;;3.70;3.40;;;17.10;67.40;;;;;;4991685;28;20465;-58
2022/12/25 10:05:41;;;;;;;3.70;3.40;;;17.50;64.60;;;;;;4991379;28;20532;-58
2022/12/25 10:08:46;;;;;;;3.30;2.87;;;17.80;63.10;;;;;;4991651;28;20436;-58
2022/12/25 10:11:45;;;;;;;3.80;3.40;;;18.20;61.00;;;;;;4991155;28;20449;-58
2022/12/25 10:14:29;;;;;;;4.20;3.77;;;18.50;59.90;;;;;;4992225;28;20430;-58
2022/12/25 10:17:13;;;;;;;2.80;2.60;;;18.80;58.70;;;;;;4993593;28;20477;-58
2022/12/25 10:19:58;;;;;;;3.43;2.60;;;19.10;58.20;;;;;;4994706;28;20776;-58
2022/12/25 10:22:43;;;;;;;3.07;2.77;;;19.30;58.90;;;;;;4995113;28;20512;-58
2022/12/25 10:25:18;;;;;;;2.90;2.67;;;19.30;58.70;;;;;;4994950;28;20525;-58
2022/12/25 10:27:47;;;;;;;2.83;2.63;;;19.40;58.40;;;;;;4994909;28;20467;-58
2022/12/25 10:30:15;;;;;;;2.90;2.23;;;19.60;58.00;;;;;;4994446;28;20845;-58
2022/12/25 10:32:43;;;;;;;3.17;2.77;;;19.50;57.70;;;;;;4994922;28;20440;-58
2022/12/25 10:35:17;;;;;;;2.90;2.70;;;19.50;57.80;;;;;;4995074;28;20430;-58
2022/12/25 10:37:47;;;;;;;3.97;3.10;;;19.50;57.90;;;;;;4994620;28;20460;-58
2022/12/25 10:40:37;;;;;;;3.17;2.57;;;19.50;58.20;;;;;;4994499;28;20941;-58
2022/12/25 10:43:30;;;;;;;3.50;2.70;;;19.30;58.10;;;;;;4993161;28;20430;-58
2022/12/25 10:45:55;;;;;;;3.77;2.93;;;18.70;59.00;;;;;;4994460;28;20441;-58
2022/12/25 10:48:27;;;;;;;2.53;2.10;;;18.50;59.00;;;;;;4994567;28;20418;-58
2022/12/25 10:50:53;;;;;;;3.43;2.37;;;18.10;59.80;;;;;;4994168;28;20226;-58
2022/12/25 10:53:26;;;;;;;3.53;2.20;;;18.10;61.40;;;;;;4994356;28;20469;-58
2022/12/25 10:56:00;;;;;;;1.90;1.80;;;18.50;60.70;;;;;;4994388;28;20860;-58
2022/12/25 10:58:27;;;;;;;3.47;2.93;;;18.60;60.00;;;;;;4994512;28;20421;-58
2022/12/25 11:01:00;;;;;;;2.50;2.13;;;18.70;60.10;;;;;;4994070;28;20466;-58
2022/12/25 11:03:31;;;;;;;2.67;2.00;;;18.90;60.10;;;;;;4994328;28;20612;-58
2022/12/25 11:05:57;;;;;;;2.27;2.10;;;19.00;59.40;;;;;;4994380;28;20801;-57
2022/12/25 11:08:25;;;;;;;2.00;1.83;;;19.00;59.20;;;;;;4992786;28;20429;-58
2022/12/25 11:11:04;;;;;;;3.53;2.10;;;19.20;58.50;;;;;;4993866;28;20422;-58
2022/12/25 11:13:33;;;;;;;2.37;2.17;;;19.20;58.30;;;;;;4993999;28;20445;-57
2022/12/25 11:16:03;;;;;;;2.27;2.07;;;19.10;58.40;;;;;;4993924;28;20422;-58
2022/12/25 11:18:33;;;;;;;2.03;1.90;;;18.80;58.80;;;;;;4993891;28;20449;-58
2022/12/25 11:21:33;;;;;;;2.23;2.03;;;18.70;59.50;;;;;;4993561;28;20452;-58
2022/12/25 11:24:04;;;;;;;2.03;1.93;;;18.60;59.50;;;;;;4971188;28;20869;-58
2022/12/25 11:26:53;;;;;;;2.33;2.13;;;18.40;59.70;;;;;;4993494;28;20635;-58
2022/12/25 11:29:32;;;;;;;3.07;2.20;;;18.40;60.10;;;;;;4993613;28;20421;-58
2022/12/25 11:32:01;;;;;;;3.20;2.57;;;18.50;60.10;;;;;;4993809;28;20425;-58
2022/12/25 11:34:34;;;;;;;2.50;2.03;;;18.60;59.80;;;;;;4993367;28;20520;-58
2022/12/25 11:37:01;;;;;;;2.50;2.30;;;18.50;60.10;;;;;;4993310;28;20438;-58
2022/12/25 11:39:27;;;;;;;2.80;2.60;;;18.60;60.40;;;;;;4993249;28;20521;-58
2022/12/25 11:42:15;;;;;;;7.10;3.20;;;18.60;60.30;;;;;;4993628;28;20512;-58
2022/12/25 11:45:18;;;;;;;3.07;2.87;;;18.50;61.00;;;;;;4993120;28;20699;-58
2022/12/25 11:48:09;;;;;;;3.50;3.20;;;18.70;60.90;;;;;;4933154;29;20444;-59
2022/12/25 11:50:45;;;;;;;3.80;2.47;;;18.80;60.40;;;;;;4991994;28;20955;-58
2022/12/25 11:53:23;;;;;;;3.23;2.60;;;18.80;60.70;;;;;;4993538;28;20783;-58
2022/12/25 11:55:55;;;;;;;4.17;3.57;;;19.00;60.70;;;;;;4993454;28;20433;-58
2022/12/25 11:58:43;;;;;;;3.23;2.93;;;19.20;60.50;;;;;;4993316;28;20891;-57
2022/12/25 12:01:17;;;;;;;3.13;2.73;;;19.10;59.90;;;;;;4991603;28;20438;-58
2022/12/25 12:03:44;;;;;;;3.13;2.83;;;19.00;60.30;;;;;;4993166;28;20520;-58
2022/12/25 12:06:31;;;;;;;2.97;2.67;;;19.10;60.10;;;;;;4993211;28;21134;-58
2022/12/25 12:09:20;;;;;;;2.50;2.30;;;19.10;60.00;;;;;;4993003;28;20438;-58
2022/12/25 12:11:57;;;;;;;2.70;2.50;;;18.80;59.70;;;;;;4993027;28;20426;-58
2022/12/25 12:14:42;;;;;;;4.27;2.83;;;18.80;60.10;;;;;;4993027;28;20457;-58
2022/12/25 12:17:11;;;;;;;2.80;2.60;;;18.80;59.80;;;;;;4992748;28;20477;-58
2022/12/25 12:19:37;;;;;;;2.57;2.37;;;18.60;59.70;;;;;;4992264;28;20508;-58
2022/12/25 12:22:03;;;;;;;2.40;2.20;;;18.60;60.20;;;;;;4992946;28;20432;-58
2022/12/25 12:24:41;;;;;;;2.40;2.20;;;18.80;60.20;;;;;;4992573;28;20481;-58
2022/12/25 12:27:24;;;;;;;3.07;2.87;;;19.00;60.40;;;;;;4992690;28;20430;-58
2022/12/25 12:29:53;;;;;;;2.60;2.40;;;19.20;59.80;;;;;;4991099;28;20439;-58
2022/12/25 12:32:41;;;;;;;3.13;2.60;;;19.20;59.30;;;;;;4992949;28;20434;-58
2022/12/25 12:35:25;;;;;;;3.30;3.00;;;19.30;58.60;;;;;;4992573;28;20504;-59
2022/12/25 12:37:57;;;;;;;3.83;2.73;;;19.40;59.10;;;;;;4992023;28;20438;-58
2022/12/25 12:40:28;;;;;;;2.87;2.57;;;19.60;58.80;;;;;;4992392;28;20449;-58
2022/12/25 12:42:54;;;;;;;3.50;2.53;;;19.70;58.00;;;;;;4992412;28;20426;-58
2022/12/25 12:45:28;;;;;;;2.70;2.03;;;19.60;57.70;;;;;;4992305;28;21048;-58
2022/12/25 12:47:54;;;;;;;2.90;2.43;;;19.90;57.50;;;;;;4992551;28;20190;-58
2022/12/25 12:50:38;;;;;;;3.40;2.40;;;20.10;56.90;;;;;;4991908;28;20433;-58
2022/12/25 12:53:22;;;;;;;2.67;2.43;;;20.30;56.80;;;;;;4992494;28;20428;-58
2022/12/25 12:55:49;;;;;;;3.23;2.53;;;20.40;56.20;;;;;;4990744;28;20480;-58
2022/12/25 12:58:34;;;;;;;2.60;2.40;;;20.50;56.40;;;;;;4992311;28;20430;-58
2022/12/25 13:01:17;;;;;;;2.70;2.50;;;20.60;56.20;;;;;;4992101;28;20444;-59
2022/12/25 13:04:13;;;;;;;3.67;2.53;;;20.60;55.30;;;;;;4990809;28;20945;-58
2022/12/25 13:06:46;;;;;;;3.03;2.67;;;20.70;55.30;;;;;;4992031;28;20937;-58
2022/12/25 13:09:45;;;;;;;2.57;2.37;;;20.30;55.20;;;;;;4991884;28;20806;-58
2022/12/25 13:12:11;;;;;;;2.53;2.33;;;20.30;56.00;;;;;;4992208;28;20457;-58
2022/12/25 13:14:42;;;;;;;4.83;2.30;;;20.50;55.60;;;;;;4992184;28;20448;-58
2022/12/25 13:17:08;;;;;;;3.13;2.53;;;20.60;54.90;;;;;;4992360;28;20504;-58
2022/12/25 13:19:36;;;;;;;2.30;2.20;;;20.70;54.80;;;;;;4991516;28;20430;-58
2022/12/25 13:22:04;;;;;;;2.50;2.30;;;20.60;55.40;;;;;;4990426;28;20646;-58
2022/12/25 13:24:33;;;;;;;2.77;2.50;;;20.80;54.90;;;;;;4991712;28;20485;-58
2022/12/25 13:26:59;;;;;;;2.77;2.33;;;20.80;54.50;;;;;;4992011;28;20953;-58
2022/12/25 13:29:34;;;;;;;3.23;3.00;;;20.90;54.50;;;;;;4991612;28;20425;-58
2022/12/25 13:32:02;;;;;;;3.00;2.37;;;21.10;54.50;;;;;;4991791;28;20256;-58
2022/12/25 13:34:36;;;;;;;1.80;1.70;;;21.10;53.90;;;;;;4991956;28;20508;-58
2022/12/25 13:37:11;;;;;;;1.70;1.60;;;21.30;53.40;;;;;;4991876;28;20437;-58
2022/12/25 13:39:50;;;;;;;1.90;1.70;;;21.10;53.40;;;;;;4991473;28;20525;-58
2022/12/25 13:42:22;;;;;;;2.63;2.43;;;21.20;53.10;;;;;;4991797;28;20437;-58
2022/12/25 13:45:20;;;;;;;3.00;2.30;;;21.40;52.80;;;;;;4991808;28;20481;-58
2022/12/25 13:47:46;;;;;;;2.50;2.30;;;21.50;52.80;;;;;;4990194;28;20429;-58
2022/12/25 13:50:23;;;;;;;2.80;2.60;;;21.70;52.80;;;;;;4993701;28;20933;-58
2022/12/25 13:52:50;;;;;;;2.77;2.50;;;21.80;52.40;;;;;;4995729;28;20240;-58
2022/12/25 13:55:35;;;;;;;1.83;1.73;;;21.60;52.00;;;;;;4995815;28;20436;-58
2022/12/25 13:58:04;;;;;;;1.70;1.60;;;21.70;52.20;;;;;;4995658;28;20842;-58
2022/12/25 14:00:36;;;;;;;3.90;1.77;;;21.90;51.50;;;;;;4994971;28;20437;-58
2022/12/25 14:03:04;;;;;;;1.70;1.60;;;21.90;51.10;;;;;;4995488;28;20444;-58
2022/12/25 14:05:33;;;;;;;2.00;1.83;;;21.90;50.90;;;;;;4995301;28;20485;-58
2022/12/25 14:08:00;;;;;;;1.97;1.87;;;22.00;51.10;;;;;;4995475;28;20433;-59
2022/12/25 14:10:31;;;;;;;3.80;2.40;;;22.00;50.90;;;;;;4995090;28;20432;-58
2022/12/25 14:13:00;;;;;;;3.07;2.87;;;21.90;50.80;;;;;;4994269;28;20445;-58
2022/12/25 14:15:28;;;;;;;4.43;2.20;;;21.90;50.80;;;;;;4993722;28;20430;-58
2022/12/25 14:17:54;;;;;;;3.23;2.10;;;21.50;51.80;;;;;;4995474;28;20432;-58
2022/12/25 14:20:27;;;;;;;2.90;1.73;;;21.40;52.10;;;;;;4994880;28;20445;-58
2022/12/25 14:22:57;;;;;;;2.60;2.00;;;21.50;52.00;;;;;;4995215;28;20198;-58
2022/12/25 14:25:33;;;;;;;2.50;2.30;;;21.50;51.60;;;;;;4993851;28;20493;-58
2022/12/25 14:28:04;;;;;;;3.57;2.50;;;21.60;51.80;;;;;;4994832;28;20425;-59
2022/12/25 14:30:30;;;;;;;2.50;2.30;;;21.60;52.00;;;;;;4994661;28;20504;-59
2022/12/25 14:32:57;;;;;;;3.00;2.40;;;21.50;51.80;;;;;;4995031;28;20421;-59
2022/12/25 14:35:23;;;;;;;3.00;2.70;;;21.40;51.70;;;;;;4994828;28;20422;-59
2022/12/25 14:37:55;;;;;;;3.80;3.30;;;21.30;52.30;;;;;;4994963;28;20434;-59
2022/12/25 14:40:25;;;;;;;4.10;3.47;;;21.30;53.10;;;;;;4992779;28;20421;-59
2022/12/25 14:43:18;;;;;;;4.33;3.50;;;21.40;53.30;;;;;;4994731;28;20441;-59
2022/12/25 14:45:54;;;;;;;3.00;2.77;;;21.40;53.40;;;;;;4994632;28;20446;-59